createdAt,value
2019-02-15T00:00:09.502Z,10.10
2019-02-15T00:02:38.400Z,9.10
2019-02-15T00:05:07.937Z,9.10
2019-02-15T00:07:36.787Z,10.37
2019-02-15T00:10:05.780Z,7.63
2019-02-15T00:12:34.723Z,7.70
2019-02-15T00:15:04.016Z,10.57
2019-02-15T00:18:10.324Z,10.10
2019-02-15T00:20:55.512Z,9.10
2019-02-15T00:23:24.363Z,8.43
2019-02-15T00:25:53.297Z,9.83
2019-02-15T00:28:22.216Z,8.07
2019-02-15T00:30:51.189Z,10.40
2019-02-15T00:33:19.980Z,8.70
2019-02-15T00:35:48.914Z,10.93
2019-02-15T00:38:17.780Z,11.43
2019-02-15T00:40:46.599Z,8.70
2019-02-15T00:43:22.138Z,10.13
2019-02-15T00:45:54.707Z,9.65
2019-02-15T00:48:23.638Z,7.57
2019-02-15T00:51:17.517Z,9.33
2019-02-15T00:53:54.979Z,7.83
2019-02-15T00:56:42.896Z,10.77
2019-02-15T00:59:28.446Z,10.73
2019-02-15T01:02:14.948Z,9.43
2019-02-15T01:04:54.754Z,11.60
2019-02-15T01:07:43.919Z,9.67
2019-02-15T01:10:27.712Z,10.27
2019-02-15T01:13:09.024Z,10.00
2019-02-15T01:15:37.881Z,11.00
2019-02-15T01:18:06.742Z,9.60
2019-02-15T01:20:35.680Z,11.03
2019-02-15T01:23:04.745Z,11.90
2019-02-15T01:25:40.625Z,12.03
2019-02-15T01:28:15.271Z,9.27
2019-02-15T01:31:11.734Z,9.40
2019-02-15T01:34:03.828Z,9.97
2019-02-15T01:36:44.828Z,8.13
2019-02-15T01:39:48.133Z,11.67
2019-02-15T01:42:31.984Z,8.63
2019-02-15T01:45:06.777Z,9.87
2019-02-15T01:47:45.410Z,10.17
2019-02-15T01:50:14.801Z,10.10
2019-02-15T01:52:43.620Z,9.13
2019-02-15T01:55:12.777Z,10.43
2019-02-15T01:57:41.544Z,9.17
2019-02-15T02:00:13.431Z,8.63
2019-02-15T02:02:42.287Z,9.47
2019-02-15T02:05:11.249Z,11.57
2019-02-15T02:07:40.154Z,10.17
2019-02-15T02:10:10.698Z,10.18
2019-02-15T02:12:39.627Z,8.00
2019-02-15T02:15:10.298Z,9.50
2019-02-15T02:17:39.185Z,8.57
2019-02-15T02:20:10.069Z,7.40
2019-02-15T02:22:39.024Z,11.83
2019-02-15T02:25:08.268Z,10.58
2019-02-15T02:27:37.185Z,7.95
2019-02-15T02:30:08.444Z,9.63
2019-02-15T02:32:37.374Z,9.77
2019-02-15T02:35:06.545Z,9.23
2019-02-15T02:37:35.365Z,8.27
2019-02-15T02:40:04.886Z,8.70
2019-02-15T02:42:33.711Z,12.50
2019-02-15T02:45:02.700Z,7.43
2019-02-15T02:47:31.552Z,10.17
2019-02-15T02:50:00.410Z,8.60
2019-02-15T02:52:29.304Z,9.83
2019-02-15T02:54:58.138Z,9.77
2019-02-15T02:57:27.012Z,11.05
2019-02-15T02:59:56.055Z,9.33
2019-02-15T03:02:24.859Z,13.13
2019-02-15T03:04:53.727Z,8.53
2019-02-15T03:07:22.619Z,8.90
2019-02-15T03:09:51.533Z,11.83
2019-02-15T03:12:20.482Z,9.00
2019-02-15T03:14:49.298Z,11.33
2019-02-15T03:17:18.145Z,7.10
2019-02-15T03:19:47.081Z,8.83
2019-02-15T03:22:15.931Z,9.13
2019-02-15T03:24:44.764Z,9.20
2019-02-15T03:27:13.648Z,11.93
2019-02-15T03:29:42.512Z,11.37
2019-02-15T03:32:11.452Z,6.33
2019-02-15T03:34:40.273Z,9.73
2019-02-15T03:37:28.218Z,10.03
2019-02-15T03:40:05.112Z,7.70
2019-02-15T03:42:33.957Z,8.30
2019-02-15T03:45:02.856Z,7.10
2019-02-15T03:47:31.683Z,9.00
2019-02-15T03:50:00.552Z,9.03
2019-02-15T03:52:29.485Z,9.00
2019-02-15T03:54:58.336Z,6.77
2019-02-15T03:57:27.249Z,7.80
2019-02-15T03:59:56.194Z,8.07
2019-02-15T04:02:25.028Z,10.17
2019-02-15T04:04:53.891Z,7.03
2019-02-15T04:07:22.846Z,6.13
2019-02-15T04:09:51.724Z,8.70
2019-02-15T04:12:20.710Z,8.20
2019-02-15T04:14:49.575Z,7.17
2019-02-15T04:17:18.372Z,7.07
2019-02-15T04:19:47.288Z,7.67
2019-02-15T04:22:16.093Z,7.00
2019-02-15T04:24:44.960Z,8.03
2019-02-15T04:27:13.828Z,8.03
2019-02-15T04:29:42.812Z,7.57
2019-02-15T04:32:11.802Z,6.10
2019-02-15T04:34:40.628Z,6.07
2019-02-15T04:37:09.619Z,6.20
2019-02-15T04:39:38.618Z,9.87
2019-02-15T04:42:07.547Z,9.73
2019-02-15T04:44:42.574Z,6.63
2019-02-15T04:47:06.900Z,9.90
2019-02-15T04:49:35.807Z,8.33
2019-02-15T04:52:04.693Z,7.27
2019-02-15T04:54:33.568Z,9.53
2019-02-15T04:57:02.599Z,7.30
2019-02-15T04:59:33.530Z,8.20
2019-02-15T05:02:02.398Z,7.90
2019-02-15T05:04:31.378Z,6.73
2019-02-15T05:07:00.241Z,6.87
2019-02-15T05:09:29.268Z,6.43
2019-02-15T05:11:58.176Z,9.23
2019-02-15T05:14:27.056Z,7.37
2019-02-15T05:16:55.918Z,7.40
2019-02-15T05:19:24.960Z,7.07
2019-02-15T05:21:53.848Z,8.20
2019-02-15T05:24:22.708Z,7.07
2019-02-15T05:26:51.602Z,7.40
2019-02-15T05:29:20.473Z,7.13
2019-02-15T05:31:49.350Z,12.83
2019-02-15T05:34:18.240Z,6.30
2019-02-15T05:36:47.060Z,7.40
2019-02-15T05:39:16.061Z,9.77
2019-02-15T05:41:44.913Z,6.57
2019-02-15T05:44:15.895Z,7.00
2019-02-15T05:46:44.283Z,6.27
2019-02-15T05:49:13.279Z,7.07
2019-02-15T05:51:42.269Z,7.33
2019-02-15T05:54:11.145Z,7.00
2019-02-15T05:56:40.453Z,8.67
2019-02-15T05:59:09.459Z,8.23
2019-02-15T06:01:38.542Z,5.90
2019-02-15T06:04:07.311Z,7.83
2019-02-15T06:06:36.171Z,7.00
2019-02-15T06:09:06.491Z,7.13
2019-02-15T06:11:35.397Z,7.03
2019-02-15T06:14:04.226Z,8.47
2019-02-15T06:16:33.072Z,6.70
2019-02-15T06:19:04.029Z,8.17
2019-02-15T06:21:32.878Z,6.87
2019-02-15T06:24:01.764Z,6.97
2019-02-15T06:26:30.642Z,7.93
2019-02-15T06:28:59.545Z,9.03
2019-02-15T06:31:28.335Z,6.93
2019-02-15T06:33:57.146Z,7.53
2019-02-15T06:36:28.523Z,9.13
2019-02-15T06:38:57.919Z,5.70
2019-02-15T06:41:26.775Z,7.40
2019-02-15T06:43:55.561Z,9.00
2019-02-15T06:46:24.344Z,6.10
2019-02-15T06:48:53.340Z,8.53
2019-02-15T06:51:22.147Z,6.90
2019-02-15T06:53:50.927Z,6.43
2019-02-15T06:56:19.911Z,7.67
2019-02-15T06:59:03.477Z,5.73
2019-02-15T07:01:52.752Z,5.90
2019-02-15T07:04:35.499Z,7.67
2019-02-15T07:07:04.317Z,6.20
2019-02-15T07:09:33.258Z,9.50
2019-02-15T07:12:02.127Z,7.63
2019-02-15T07:14:30.950Z,6.63
2019-02-15T07:16:59.693Z,7.27
2019-02-15T07:19:28.774Z,6.30
2019-02-15T07:21:57.556Z,7.03
2019-02-15T07:24:26.350Z,9.37
2019-02-15T07:29:27.697Z,10.07
2019-02-15T07:31:56.519Z,10.10
2019-02-15T07:34:25.366Z,4.57
2019-02-15T07:36:54.290Z,6.03
2019-02-15T07:39:26.239Z,6.07
2019-02-15T07:41:55.053Z,7.93
2019-02-15T07:44:23.992Z,10.47
2019-02-15T07:46:52.822Z,6.20
2019-02-15T07:49:26.995Z,8.30
2019-02-15T07:51:52.331Z,10.57
2019-02-15T07:54:21.137Z,6.00
2019-02-15T07:56:50.030Z,8.37
2019-02-15T07:59:18.934Z,7.70
2019-02-15T08:01:48.074Z,10.20
2019-02-15T08:04:17.011Z,6.67
2019-02-15T08:06:45.847Z,7.83
2019-02-15T08:09:14.763Z,8.53
2019-02-15T08:11:43.761Z,5.63
2019-02-15T08:14:14.771Z,6.10
2019-02-15T08:16:43.209Z,5.27
2019-02-15T08:19:12.239Z,9.57
2019-02-15T08:21:41.543Z,6.47
2019-02-15T08:24:10.369Z,6.47
2019-02-15T08:26:39.248Z,9.50
2019-02-15T08:29:08.340Z,7.57
2019-02-15T08:31:37.240Z,7.90
2019-02-15T08:34:06.023Z,7.93
2019-02-15T08:36:34.854Z,7.87
2019-02-15T08:39:05.436Z,6.43
2019-02-15T08:41:34.215Z,5.73
2019-02-15T08:44:03.019Z,9.50
2019-02-15T08:46:31.825Z,8.60
2019-02-15T08:49:00.912Z,7.60
2019-02-15T08:51:29.723Z,9.63
2019-02-15T08:53:58.476Z,8.90
2019-02-15T08:56:27.301Z,8.43
2019-02-15T08:58:57.276Z,7.87
2019-02-15T09:01:26.059Z,7.37
2019-02-15T09:03:54.860Z,7.67
2019-02-15T09:06:23.691Z,7.00
2019-02-15T09:08:52.607Z,6.90
2019-02-15T09:11:21.414Z,11.37
2019-02-15T09:13:50.208Z,7.47
2019-02-15T09:16:19.039Z,7.57
2019-02-15T09:18:48.056Z,7.00
2019-02-15T09:21:16.857Z,8.67
2019-02-15T09:23:45.686Z,7.93
2019-02-15T09:26:18.246Z,9.67
2019-02-15T09:28:51.979Z,7.00
2019-02-15T09:31:20.919Z,7.97
2019-02-15T09:33:49.719Z,5.20
2019-02-15T09:36:18.521Z,9.00
2019-02-15T09:38:47.666Z,8.27
2019-02-15T09:41:16.477Z,11.17
2019-02-15T09:43:45.251Z,8.70
2019-02-15T09:46:19.943Z,7.60
2019-02-15T09:48:44.698Z,7.93
2019-02-15T09:51:13.487Z,7.47
2019-02-15T09:53:42.281Z,7.63
2019-02-15T09:56:11.094Z,5.40
2019-02-15T09:58:40.148Z,7.77
2019-02-15T10:01:09.031Z,8.10
2019-02-15T10:03:37.825Z,8.90
2019-02-15T10:06:06.652Z,7.23
2019-02-15T10:08:35.622Z,10.13
2019-02-15T10:11:04.409Z,8.17
2019-02-15T10:13:33.206Z,8.63
2019-02-15T10:16:01.992Z,7.43
2019-02-15T10:18:30.977Z,5.63
2019-02-15T10:20:59.764Z,8.68
2019-02-15T10:23:28.570Z,8.90
2019-02-15T10:25:57.382Z,8.70
2019-02-15T10:28:26.319Z,7.03
2019-02-15T10:30:55.289Z,8.60
2019-02-15T10:33:24.081Z,11.33
2019-02-15T10:35:52.875Z,6.80
2019-02-15T10:38:21.611Z,8.30
2019-02-15T10:40:50.447Z,8.93
2019-02-15T10:43:19.226Z,6.23
2019-02-15T10:45:48.120Z,11.47
2019-02-15T10:48:17.002Z,5.50
2019-02-15T10:50:45.818Z,7.40
2019-02-15T10:53:14.552Z,5.60
2019-02-15T10:55:43.379Z,8.63
2019-02-15T10:58:12.156Z,7.37
2019-02-15T11:00:40.966Z,6.07
2019-02-15T11:03:09.759Z,8.60
2019-02-15T11:05:38.579Z,7.20
2019-02-15T11:08:07.358Z,8.67
2019-02-15T11:10:36.228Z,6.27
2019-02-15T11:13:05.111Z,6.93
2019-02-15T11:15:33.963Z,6.33
2019-02-15T11:18:02.745Z,11.03
2019-02-15T11:20:31.762Z,5.47
2019-02-15T11:23:00.556Z,8.67
2019-02-15T11:25:29.338Z,9.70
2019-02-15T11:27:58.217Z,9.10
2019-02-15T11:30:27.090Z,7.23
2019-02-15T11:32:55.844Z,8.47
2019-02-15T11:35:24.624Z,10.63
2019-02-15T11:37:53.437Z,5.90
2019-02-15T11:40:22.833Z,9.78
2019-02-15T11:42:51.697Z,5.87
2019-02-15T11:45:20.472Z,4.87
2019-02-15T11:47:49.253Z,6.97
2019-02-15T11:50:18.230Z,6.33
2019-02-15T11:52:47.076Z,5.17
2019-02-15T11:55:15.889Z,6.30
2019-02-15T11:57:44.682Z,8.70
2019-02-15T12:00:18.475Z,6.30
2019-02-15T12:02:47.216Z,6.43
2019-02-15T12:05:16.009Z,7.07
2019-02-15T12:07:44.787Z,5.47
2019-02-15T12:10:13.641Z,4.63
2019-02-15T12:12:42.413Z,4.27
2019-02-15T12:20:32.175Z,8.93
2019-02-15T12:23:00.973Z,4.90
2019-02-15T12:25:29.769Z,5.47
2019-02-15T12:27:58.566Z,5.07
2019-02-15T12:30:27.581Z,4.77
2019-02-15T12:32:56.395Z,5.87
2019-02-15T12:35:25.166Z,4.37
2019-02-15T12:37:53.922Z,4.47
2019-02-15T12:40:22.889Z,5.72
2019-02-15T12:42:51.686Z,3.90
2019-02-15T12:45:20.466Z,6.97
2019-02-15T12:47:49.284Z,6.10
2019-02-15T12:50:18.299Z,4.67
2019-02-15T12:52:47.093Z,4.57
2019-02-15T12:55:15.940Z,6.40
2019-02-15T12:57:44.818Z,5.00
2019-02-15T13:00:15.080Z,5.10
2019-02-15T13:02:43.861Z,3.67
2019-02-15T13:05:12.808Z,4.93
2019-02-15T13:07:41.682Z,4.13
2019-02-15T13:13:50.229Z,4.37
2019-02-15T13:16:19.177Z,5.33
2019-02-15T13:22:16.431Z,6.10
2019-02-15T13:24:45.303Z,5.17
2019-02-15T13:27:14.106Z,5.13
2019-02-15T13:29:42.939Z,5.97
2019-02-15T13:32:11.742Z,4.83
2019-02-15T13:34:40.589Z,6.87
2019-02-15T13:37:09.386Z,6.17
2019-02-15T13:39:38.175Z,4.40
2019-02-15T13:42:07.047Z,5.90
2019-02-15T13:44:35.903Z,5.03
2019-02-15T13:47:04.677Z,6.23
2019-02-15T13:49:33.463Z,5.63
2019-02-15T13:52:02.297Z,10.47
2019-02-15T13:54:31.095Z,4.83
2019-02-15T13:56:59.958Z,4.70
2019-02-15T13:59:28.863Z,5.70
2019-02-15T14:01:57.680Z,6.33
2019-02-15T14:04:26.445Z,8.37
2019-02-15T14:06:56.020Z,7.23
2019-02-15T14:09:24.899Z,11.30
2019-02-15T14:11:53.737Z,7.28
2019-02-15T14:14:22.575Z,6.17
2019-02-15T14:18:28.945Z,7.03
2019-02-15T14:20:57.749Z,5.40
2019-02-15T14:23:26.603Z,5.33
2019-02-15T14:25:55.411Z,4.27
2019-02-15T14:28:24.450Z,5.70
2019-02-15T14:30:53.608Z,6.47
2019-02-15T14:33:22.414Z,4.83
2019-02-15T14:35:51.146Z,4.63
2019-02-15T14:38:20.083Z,4.23
2019-02-15T14:40:48.972Z,8.70
2019-02-15T14:43:17.751Z,4.17
2019-02-15T14:45:46.534Z,4.27
2019-02-15T14:48:15.497Z,5.47
2019-02-15T14:50:44.324Z,5.13
2019-02-15T14:53:13.105Z,5.93
2019-02-15T14:55:41.990Z,6.00
2019-02-15T14:58:11.070Z,5.80
2019-02-15T15:00:39.865Z,4.23
2019-02-15T15:03:08.653Z,4.70
2019-02-15T15:05:37.479Z,4.53
2019-02-15T15:08:06.265Z,6.03
2019-02-15T15:10:35.089Z,4.20
2019-02-15T15:13:03.861Z,5.00
2019-02-15T15:15:32.975Z,6.40
2019-02-15T15:18:12.457Z,5.13
2019-02-15T15:20:32.267Z,5.83
2019-02-15T15:23:01.126Z,4.23
2019-02-15T15:25:29.931Z,5.47
2019-02-15T15:27:58.707Z,5.07
2019-02-15T15:30:27.703Z,5.57
2019-02-15T15:32:56.651Z,4.43
2019-02-15T15:35:25.498Z,6.77
2019-02-15T15:37:54.275Z,5.37
2019-02-15T15:40:23.300Z,7.23
2019-02-15T15:42:52.106Z,5.43
2019-02-15T15:45:20.923Z,7.17
2019-02-15T15:47:49.705Z,7.40
2019-02-15T15:50:18.829Z,5.23
2019-02-15T15:52:47.645Z,5.47
2019-02-15T15:55:17.770Z,7.63
2019-02-15T15:57:46.875Z,6.00
2019-02-15T16:00:16.009Z,6.43
2019-02-15T16:02:44.811Z,7.83
2019-02-15T16:05:13.676Z,5.17
2019-02-15T16:07:43.617Z,6.93
2019-02-15T16:10:13.310Z,8.23
2019-02-15T16:12:42.391Z,5.67
2019-02-15T16:15:11.676Z,5.43
2019-02-15T16:17:40.487Z,7.43
2019-02-15T16:20:10.688Z,7.05
2019-02-15T16:22:39.482Z,8.40
2019-02-15T16:25:08.900Z,9.33
2019-02-15T16:27:37.795Z,8.03
2019-02-15T16:30:07.885Z,7.50
2019-02-15T16:32:36.694Z,7.93
2019-02-15T16:35:06.027Z,9.53
2019-02-15T16:37:34.853Z,6.50
2019-02-15T16:40:03.988Z,7.93
2019-02-15T16:42:32.896Z,7.20
2019-02-15T16:45:01.734Z,5.70
2019-02-15T16:47:30.625Z,7.33
2019-02-15T16:49:59.542Z,8.77
2019-02-15T16:52:28.537Z,7.78
2019-02-15T16:54:57.315Z,9.97
2019-02-15T16:57:26.190Z,6.70
2019-02-15T16:59:55.098Z,9.00
2019-02-15T17:02:23.853Z,8.60
2019-02-15T17:04:52.680Z,7.87
2019-02-15T17:07:21.550Z,10.97
2019-02-15T17:09:51.451Z,7.30
2019-02-15T17:12:20.248Z,7.87
2019-02-15T17:14:49.059Z,10.20
2019-02-15T17:17:17.846Z,6.10
2019-02-15T17:19:46.974Z,9.17
2019-02-15T17:22:16.949Z,6.83
2019-02-15T17:24:45.811Z,7.03
2019-02-15T17:27:14.628Z,8.30
2019-02-15T17:29:43.556Z,9.80
2019-02-15T17:32:12.390Z,9.40
2019-02-15T17:34:41.194Z,7.90
2019-02-15T17:37:10.077Z,6.93
2019-02-15T17:39:39.991Z,8.73
2019-02-15T17:42:08.883Z,8.20
2019-02-15T17:44:37.688Z,8.07
2019-02-15T17:47:06.571Z,10.37
2019-02-15T17:49:35.532Z,8.00
2019-02-15T17:52:04.351Z,10.17
2019-02-15T17:54:33.269Z,8.97
2019-02-15T17:57:02.137Z,12.07
2019-02-15T17:59:31.108Z,9.40
2019-02-15T18:01:59.897Z,9.10
2019-02-15T18:04:29.673Z,8.43
2019-02-15T18:06:58.459Z,9.23
2019-02-15T18:09:27.491Z,12.20
2019-02-15T18:11:56.285Z,9.17
2019-02-15T18:14:25.081Z,11.93
2019-02-15T18:16:54.050Z,9.47
2019-02-15T18:19:22.972Z,8.83
2019-02-15T18:21:51.789Z,7.40
2019-02-15T18:24:20.699Z,8.80
2019-02-15T18:26:49.633Z,11.17
2019-02-15T18:29:18.605Z,10.03
2019-02-15T18:31:47.466Z,13.23
2019-02-15T18:34:16.274Z,12.83
2019-02-15T18:36:45.074Z,10.83
2019-02-15T18:39:14.100Z,12.33
2019-02-15T18:41:42.942Z,9.83
2019-02-15T18:44:11.705Z,11.10
2019-02-15T18:46:40.621Z,11.23
2019-02-15T18:49:09.504Z,12.10
2019-02-15T18:51:38.331Z,13.50
2019-02-15T18:54:07.224Z,15.40
2019-02-15T18:56:36.025Z,14.83
2019-02-15T18:59:04.872Z,13.77
2019-02-15T19:01:33.690Z,14.67
2019-02-15T19:04:02.495Z,12.53
2019-02-15T19:06:31.299Z,10.73
2019-02-15T19:09:00.230Z,10.87
2019-02-15T19:11:29.109Z,13.00
2019-02-15T19:13:57.899Z,11.57
2019-02-15T19:16:26.742Z,13.77
2019-02-15T19:18:55.780Z,15.93
2019-02-15T19:21:24.738Z,15.13
2019-02-15T19:23:53.538Z,13.83
2019-02-15T19:26:22.424Z,11.07
2019-02-15T19:28:51.264Z,14.90
2019-02-15T19:31:20.167Z,10.90
2019-02-15T19:33:48.985Z,13.83
2019-02-15T19:36:17.749Z,12.50
2019-02-15T19:38:46.743Z,11.87
2019-02-15T19:41:15.639Z,13.97
2019-02-15T19:43:44.449Z,10.97
2019-02-15T19:46:13.253Z,10.70
2019-02-15T19:48:42.281Z,9.90
2019-02-15T19:51:11.157Z,8.57
2019-02-15T19:53:39.965Z,9.63
2019-02-15T19:56:08.773Z,10.73
2019-02-15T19:58:37.710Z,7.57
2019-02-15T20:01:06.519Z,9.07
2019-02-15T20:03:35.269Z,9.47
2019-02-15T20:06:04.345Z,9.87
2019-02-15T20:08:33.163Z,6.93
2019-02-15T20:11:02.002Z,10.90
2019-02-15T20:13:30.846Z,7.73
2019-02-15T20:15:59.663Z,8.50
2019-02-15T20:18:28.539Z,8.33
2019-02-15T20:20:57.352Z,10.77
2019-02-15T20:23:26.156Z,7.60
2019-02-15T20:25:55.119Z,12.35
2019-02-15T20:28:24.283Z,8.57
2019-02-15T20:30:53.124Z,9.83
2019-02-15T20:33:21.964Z,14.97
2019-02-15T20:35:50.754Z,16.50
2019-02-15T20:38:19.685Z,20.50
2019-02-15T20:40:48.614Z,14.23
2019-02-15T20:43:17.526Z,10.90
2019-02-15T20:45:46.509Z,11.47
2019-02-15T20:48:15.312Z,12.30
2019-02-15T20:50:44.095Z,16.10
2019-02-15T20:53:12.892Z,16.60
2019-02-15T20:55:41.695Z,14.07
2019-02-15T20:58:10.499Z,11.27
2019-02-15T21:00:39.366Z,16.03
2019-02-15T21:03:08.332Z,13.30
2019-02-15T21:05:37.148Z,17.20
2019-02-15T21:08:06.053Z,11.63
2019-02-15T21:10:34.812Z,10.23
2019-02-15T21:13:03.641Z,9.63
2019-02-15T21:15:32.499Z,12.10
2019-02-15T21:18:01.297Z,10.90
2019-02-15T21:20:30.175Z,14.30
2019-02-15T21:22:58.963Z,10.47
2019-02-15T21:25:27.898Z,11.95
2019-02-15T21:27:56.877Z,15.37
2019-02-15T21:30:25.719Z,14.13
2019-02-15T21:32:54.673Z,15.30
2019-02-15T21:35:24.089Z,19.47
2019-02-15T21:37:53.056Z,16.33
2019-02-15T21:40:21.938Z,13.90
2019-02-15T21:42:52.215Z,14.70
2019-02-15T21:45:21.328Z,12.80
2019-02-15T21:47:50.206Z,10.60
2019-02-15T21:50:19.188Z,14.80
2019-02-15T21:52:48.013Z,13.03
2019-02-15T21:55:17.071Z,15.67
2019-02-15T21:57:45.968Z,11.57
2019-02-15T22:00:16.952Z,8.33
2019-02-15T22:02:46.574Z,9.93
2019-02-15T22:05:16.154Z,11.33
2019-02-15T22:07:45.020Z,10.40
2019-02-15T22:10:13.946Z,13.50
2019-02-15T22:12:42.786Z,12.77
2019-02-15T22:15:11.945Z,12.53
2019-02-15T22:17:40.899Z,11.07
2019-02-15T22:20:11.314Z,10.87
2019-02-15T22:22:40.135Z,11.07
2019-02-15T22:25:10.213Z,11.75
2019-02-15T22:27:39.087Z,10.13
2019-02-15T22:30:10.661Z,11.83
2019-02-15T22:32:39.496Z,8.97
2019-02-15T22:35:09.406Z,10.43
2019-02-15T22:37:38.263Z,11.63
2019-02-15T22:40:39.575Z,11.53
2019-02-15T22:43:14.518Z,11.30
2019-02-15T22:45:43.537Z,14.20
2019-02-15T22:48:12.429Z,9.87
2019-02-15T22:50:41.234Z,8.47
2019-02-15T22:53:10.091Z,11.47
2019-02-15T22:55:39.109Z,9.40
2019-02-15T22:58:07.983Z,12.90
2019-02-15T23:00:50.156Z,9.20
2019-02-15T23:03:21.698Z,13.67
2019-02-15T23:05:50.692Z,12.53
2019-02-15T23:08:19.733Z,10.33
2019-02-15T23:10:48.688Z,9.20
2019-02-15T23:13:17.491Z,11.83
2019-02-15T23:15:46.355Z,9.50
2019-02-15T23:18:15.595Z,12.93
2019-02-15T23:20:45.514Z,10.77
2019-02-15T23:23:14.694Z,12.00
2019-02-15T23:25:43.584Z,10.50
2019-02-15T23:28:12.531Z,11.67
2019-02-15T23:30:41.481Z,11.80
2019-02-15T23:33:10.440Z,11.93
2019-02-15T23:35:39.378Z,11.53
2019-02-15T23:38:08.376Z,8.43
2019-02-15T23:40:37.211Z,10.20
2019-02-15T23:43:06.194Z,11.00
2019-02-15T23:45:35.008Z,11.77
2019-02-15T23:48:03.883Z,11.47
2019-02-15T23:50:32.875Z,9.13
2019-02-15T23:53:01.745Z,12.20
2019-02-15T23:55:30.537Z,11.47
2019-02-15T23:57:59.400Z,11.33
